createdAt,value
2023-05-02T00:01:26.760Z,117.52113
2023-05-02T00:06:28.123Z,112.76712
2023-05-02T00:11:29.582Z,112.76712
2023-05-02T00:16:30.825Z,118.50425
2023-05-02T00:21:32.372Z,117.03371
2023-05-02T00:26:33.663Z,115.58774
2023-05-02T00:31:35.056Z,114.16575
2023-05-02T00:36:36.478Z,110.48649
2023-05-02T00:41:37.842Z,113.69697
2023-05-02T00:46:39.166Z,118.50425
2023-05-02T00:51:40.613Z,122.55072
2023-05-02T00:56:42.198Z,122.55072
2023-05-02T01:01:43.819Z,123.59184
2023-05-02T01:06:45.572Z,121.52161
2023-05-02T01:11:47.185Z,119
2023-05-02T01:16:48.691Z,117.03371
2023-05-02T01:21:50.223Z,116.54902
2023-05-02T01:26:51.502Z,114.63712
2023-05-02T01:31:53.071Z,111.3913
2023-05-02T01:36:54.527Z,115.58774
2023-05-02T01:41:56.134Z,114.63712
2023-05-02T01:46:57.805Z,115.58774
2023-05-02T01:51:59.441Z,112.76712
2023-05-02T01:57:01.042Z,109.14745
2023-05-02T02:02:02.601Z,105.67979
2023-05-02T02:07:04.157Z,103.58549
2023-05-02T02:12:05.668Z,101.94872
2023-05-02T02:17:07.250Z,100.34518
2023-05-02T02:22:08.843Z,103.58549
2023-05-02T02:27:10.234Z,100.34518
2023-05-02T02:32:11.635Z,99.16373
2023-05-02T02:37:13.156Z,96.8536
2023-05-02T02:42:14.701Z,94.2439
2023-05-02T02:47:16.371Z,91.72182
2023-05-02T02:52:18.110Z,88.94118
2023-05-02T02:57:19.656Z,85.6092
2023-05-02T03:02:21.147Z,83.05192
2023-05-02T03:07:22.634Z,81.5
2023-05-02T03:12:23.968Z,80.88889
2023-05-02T03:17:26.295Z,80.58537
2023-05-02T03:22:27.801Z,80.28319
2023-05-02T03:27:29.053Z,78.49782
2023-05-02T03:32:30.435Z,77.04536
2023-05-02T03:37:32.073Z,77.33333
2023-05-02T03:42:33.296Z,75.06383
2023-05-02T03:47:34.592Z,73.68421
2023-05-02T03:52:36.054Z,73.41176
2023-05-02T03:57:37.293Z,73.14046
2023-05-02T04:02:38.849Z,73.14046
2023-05-02T04:07:40.541Z,73.68421
2023-05-02T04:12:42.163Z,75.90578
2023-05-02T04:17:43.787Z,78.20479
2023-05-02T04:22:45.476Z,77.33333
2023-05-02T04:27:47.033Z,77.91304
2023-05-02T04:32:48.613Z,77.33333
2023-05-02T04:37:49.918Z,78.49782
2023-05-02T04:42:51.207Z,77.91304
2023-05-02T04:47:52.761Z,78.20479
2023-05-02T04:52:54.425Z,78.49782
2023-05-02T04:57:56.000Z,78.20479
2023-05-02T05:02:59.190Z,76.18884
2023-05-02T05:08:02.500Z,75.62393
2023-05-02T05:13:04.099Z,77.04536
2023-05-02T05:18:05.724Z,78.20479
2023-05-02T05:23:07.412Z,77.33333
2023-05-02T05:28:08.988Z,79.38462
2023-05-02T05:33:10.613Z,77.91304
2023-05-02T05:38:12.331Z,78.49782
2023-05-02T05:43:13.912Z,77.62256
2023-05-02T05:48:15.532Z,78.20479
2023-05-02T05:53:17.194Z,78.79212
2023-05-02T05:58:18.804Z,78.20479
2023-05-02T06:03:20.432Z,76.47312
2023-05-02T06:08:22.148Z,80.28319
2023-05-02T06:13:23.730Z,83.36652
2023-05-02T06:18:25.053Z,81.5
2023-05-02T06:23:26.556Z,89.62648
2023-05-02T06:28:27.914Z,90.31829
2023-05-02T06:33:29.176Z,91.72182
2023-05-02T06:38:30.529Z,92.43373
2023-05-02T06:43:31.847Z,94.61125
2023-05-02T06:48:33.277Z,99.55556
2023-05-02T06:53:34.798Z,103.58549
2023-05-02T06:58:36.148Z,114.16575
2023-05-02T07:03:37.480Z,123.06977
2023-05-02T07:08:38.932Z,124.64516
2023-05-02T07:13:40.308Z,128.43114
2023-05-02T07:18:41.766Z,138.93671
2023-05-02T07:23:43.292Z,142.07074
2023-05-02T07:28:44.770Z,148.65116
2023-05-02T07:33:46.233Z,145.30719
2023-05-02T07:38:47.860Z,142.70968
2023-05-02T07:43:49.310Z,135.30435
2023-05-02T07:48:50.768Z,143.35275
2023-05-02T07:53:52.222Z,150.71141
2023-05-02T07:58:53.696Z,157.88889
2023-05-02T08:03:55.472Z,160.14035
2023-05-02T08:08:57.257Z,154.23891
2023-05-02T08:13:58.840Z,159.38462
2023-05-02T08:19:00.430Z,157.14879
2023-05-02T08:24:02.015Z,159.38462
2023-05-02T08:29:03.625Z,160.14035
2023-05-02T08:34:05.207Z,164
2023-05-02T08:39:06.824Z,166.38267
2023-05-02T08:44:08.510Z,168.81752
2023-05-02T08:49:10.057Z,172.14815
2023-05-02T08:54:11.818Z,172.99628
2023-05-02T08:59:13.379Z,186.51969
2023-05-02T09:04:14.971Z,174.71161
2023-05-02T09:09:18.448Z,173.85075
2023-05-02T09:14:20.740Z,180.01533
2023-05-02T09:19:22.316Z,175.57895
2023-05-02T09:24:24.066Z,179.1145
2023-05-02T09:29:25.589Z,182.75969
2023-05-02T09:34:27.053Z,190.4
2023-05-02T09:39:28.321Z,188.44444
2023-05-02T09:44:29.646Z,185.56863
2023-05-02T09:49:30.959Z,195.42857
2023-05-02T09:54:32.401Z,189.41833
2023-05-02T09:59:33.708Z,185.56863
2023-05-02T10:04:35.113Z,191.38956
2023-05-02T10:09:36.735Z,187.47826
2023-05-02T10:14:38.136Z,190.4
2023-05-02T10:19:39.415Z,193.39271
2023-05-02T10:24:40.784Z,188.44444
2023-05-02T10:29:42.236Z,195.42857
2023-05-02T10:34:43.647Z,189.41833
2023-05-02T10:39:45.250Z,186.51969
2023-05-02T10:44:46.812Z,196.45902
2023-05-02T10:49:48.381Z,202.82353
2023-05-02T10:54:49.998Z,191.38956
2023-05-02T10:59:51.700Z,210.66667
2023-05-02T11:04:53.379Z,203.91561
2023-05-02T11:09:54.888Z,210.66667
2023-05-02T11:14:56.790Z,206.12766
2023-05-02T11:19:58.398Z,203.91561
2023-05-02T11:25:00.166Z,190.4
2023-05-02T11:30:01.923Z,214.17544
2023-05-02T11:35:03.434Z,212.99563
2023-05-02T11:40:05.072Z,216.56637
2023-05-02T11:45:06.691Z,219
2023-05-02T11:50:08.269Z,222.73303
2023-05-02T11:55:11.102Z,224
2023-05-02T12:00:13.376Z,200.66667
2023-05-02T12:05:15.037Z,224
2023-05-02T12:10:16.634Z,214.17544
2023-05-02T12:15:18.184Z,211.82609
2023-05-02T12:20:19.762Z,233.20188
2023-05-02T12:25:21.460Z,216.56637
2023-05-02T12:30:22.980Z,206.12766
2023-05-02T12:35:24.792Z,209.51724
2023-05-02T12:40:26.419Z,209.51724
2023-05-02T12:45:27.745Z,197.49794
2023-05-02T12:50:29.046Z,205.01695
2023-05-02T12:55:30.328Z,175.57895
2023-05-02T13:00:31.792Z,170.47059
2023-05-02T13:05:33.116Z,175.57895
2023-05-02T13:10:34.456Z,172.99628
2023-05-02T13:15:35.898Z,168
2023-05-02T13:20:37.255Z,164
2023-05-02T13:25:38.533Z,170.47059
2023-05-02T13:30:40.066Z,172.99628
2023-05-02T13:35:41.361Z,185.56863
2023-05-02T13:40:42.792Z,203.91561
2023-05-02T13:45:44.136Z,224
2023-05-02T13:50:45.682Z,0
2023-05-02T13:55:47.178Z,215.36564
2023-05-02T14:00:48.871Z,175.57895
2023-05-02T14:05:50.435Z,187.47826
2023-05-02T14:10:52.091Z,175.57895
2023-05-02T14:15:54.242Z,163.21708
2023-05-02T14:20:55.626Z,205.01695
2023-05-02T14:25:57.178Z,201.74059
2023-05-02T14:30:58.586Z,178.22053
2023-05-02T14:35:59.898Z,160.90141
2023-05-02T14:41:01.407Z,145.96721
2023-05-02T14:46:02.878Z,118.50425
2023-05-02T14:51:04.238Z,105.25654
2023-05-02T14:56:05.756Z,107.39523
2023-05-02T15:01:07.135Z,118.50425
2023-05-02T15:06:08.675Z,148.65116
2023-05-02T15:11:10.207Z,150.71141
2023-05-02T15:16:11.540Z,148.65116
2023-05-02T15:21:13.029Z,164.78853
2023-05-02T15:26:14.360Z,161.66784
2023-05-02T15:31:15.651Z,143.35275
2023-05-02T15:36:16.937Z,141.4359
2023-05-02T15:41:18.377Z,142.70968
2023-05-02T15:46:19.889Z,145.96721
2023-05-02T15:51:21.374Z,172.14815
2023-05-02T15:56:23.252Z,135.90031
2023-05-02T16:01:24.747Z,137.71069
2023-05-02T16:06:26.157Z,141.4359
2023-05-02T16:11:27.489Z,152.81356
2023-05-02T16:16:28.923Z,155.68385
2023-05-02T16:21:30.291Z,164.78853
2023-05-02T16:26:31.856Z,177.33333
2023-05-02T16:31:33.249Z,178.22053
2023-05-02T16:36:34.605Z,191.38956
2023-05-02T16:41:36.036Z,187.47826
2023-05-02T16:46:37.338Z,185.56863
2023-05-02T16:51:38.724Z,190.4
2023-05-02T16:56:42.029Z,179.1145
2023-05-02T17:01:44.780Z,193.39271
2023-05-02T17:06:46.922Z,178.22053
2023-05-02T17:11:49.118Z,168.81752
2023-05-02T17:16:51.849Z,153.52381
2023-05-02T17:21:54.643Z,153.52381
2023-05-02T17:26:56.971Z,158.63415
2023-05-02T17:31:59.158Z,166.38267
2023-05-02T17:37:00.917Z,154.9589
2023-05-02T17:42:02.573Z,150.71141
2023-05-02T17:47:03.930Z,145.30719
2023-05-02T17:52:05.494Z,142.70968
2023-05-02T17:57:07.188Z,141.4359
2023-05-02T18:02:10.265Z,125.17647
2023-05-02T18:07:12.828Z,137.71069
2023-05-02T18:12:15.695Z,145.30719
2023-05-02T18:17:18.396Z,114.63712
2023-05-02T18:22:20.914Z,123.59184
2023-05-02T18:27:22.877Z,119
2023-05-02T18:32:24.463Z,128.98498
2023-05-02T18:37:26.049Z,144.65147
2023-05-02T18:42:27.701Z,145.30719
2023-05-02T18:47:29.013Z,138.93671
2023-05-02T18:52:30.304Z,134.71207
2023-05-02T18:57:31.702Z,127.33333
2023-05-02T19:02:33.145Z,123.59184
2023-05-02T19:07:36.204Z,121.01149
2023-05-02T19:12:39.922Z,132.3792
2023-05-02T19:17:42.751Z,128.43114
2023-05-02T19:22:44.309Z,134.12346
2023-05-02T19:27:46.824Z,135.30435
2023-05-02T19:32:48.324Z,128.43114
2023-05-02T19:37:49.833Z,134.71207
2023-05-02T19:42:51.340Z,136.5
2023-05-02T19:47:52.912Z,134.71207
2023-05-02T19:52:54.591Z,135.90031
2023-05-02T19:57:56.273Z,128.43114
2023-05-02T20:02:57.828Z,130.66667
2023-05-02T20:07:59.414Z,138.32177
2023-05-02T20:13:01.060Z,135.90031
2023-05-02T20:18:02.729Z,127.8806
2023-05-02T20:23:04.329Z,126.24852
2023-05-02T20:28:05.994Z,121.52161
2023-05-02T20:33:15.407Z,134.12346
2023-05-02T20:38:18.142Z,157.14879
2023-05-02T20:43:19.960Z,149.33333
2023-05-02T20:48:22.116Z,137.71069
2023-05-02T20:53:24.173Z,132.95706
2023-05-02T20:58:25.797Z,131.23404
2023-05-02T21:03:27.353Z,129.54217
2023-05-02T21:08:28.972Z,124.64516
2023-05-02T21:13:30.421Z,130.66667
2023-05-02T21:18:31.683Z,127.33333
2023-05-02T21:23:32.952Z,125.17647
2023-05-02T21:28:34.326Z,125.17647
2023-05-02T21:33:35.616Z,123.06977
2023-05-02T21:38:37.102Z,120
2023-05-02T21:43:38.439Z,118.50425
2023-05-02T21:48:39.866Z,121.01149
2023-05-02T21:53:41.327Z,118.50425
2023-05-02T21:58:42.625Z,118.50425
2023-05-02T22:03:43.915Z,118.0113
2023-05-02T22:08:45.257Z,117.52113
2023-05-02T22:13:46.664Z,118.50425
2023-05-02T22:18:47.987Z,120
2023-05-02T22:23:49.499Z,116.54902
2023-05-02T22:28:51.003Z,119
2023-05-02T22:33:52.570Z,117.52113
2023-05-02T22:38:54.030Z,116.06704
2023-05-02T22:43:55.560Z,117.03371
2023-05-02T22:48:57.111Z,117.52113
2023-05-02T22:53:58.682Z,114.16575
2023-05-02T22:59:00.160Z,111.3913
2023-05-02T23:04:01.681Z,110.48649
2023-05-02T23:09:03.192Z,110.93767
2023-05-02T23:14:05.089Z,114.63712
2023-05-02T23:19:06.669Z,110.93767
2023-05-02T23:24:08.228Z,114.16575
2023-05-02T23:29:10.060Z,121.01149
2023-05-02T23:34:11.607Z,124.11696
2023-05-02T23:39:13.169Z,123.06977
2023-05-02T23:44:14.781Z,123.59184
2023-05-02T23:49:16.436Z,122.55072
2023-05-02T23:54:17.990Z,122.03468
2023-05-02T23:59:19.676Z,122.55072
